Time;durP1;ratioP1;P1;durP2;ratioP2;P2;SDS_P1;SDS_P2;PMS_P1;PMS_P2;Temp;Humidity;BMP_temperature;BMP_pressure;BME280_temperature;BME280_humidity;BME280_pressure;Samples;Min_cycle;Max_cycle;Signal;HPM_P1;HPM_P2
2023/02/15 00:01:55;;;;;;;19.77;17.10;;;6.20;1.00;;;;;;5099207;28;20441;-42
2023/02/15 00:04:45;;;;;;;18.20;15.90;;;6.10;1.00;;;;;;5099728;28;20172;-41
2023/02/15 00:07:10;;;;;;;18.93;16.93;;;6.10;1.00;;;;;;5097818;28;20450;-41
2023/02/15 00:09:36;;;;;;;18.90;16.90;;;6.10;1.00;;;;;;5098391;28;20906;-42
2023/02/15 00:12:01;;;;;;;21.17;17.90;;;6.00;1.00;;;;;;5099579;28;20185;-40
2023/02/15 00:14:27;;;;;;;18.27;16.13;;;6.00;1.00;;;;;;5097927;28;20279;-41
2023/02/15 00:16:54;;;;;;;18.60;16.53;;;6.00;1.00;;;;;;5098043;28;20168;-42
2023/02/15 00:19:21;;;;;;;20.70;17.20;;;6.00;1.00;;;;;;5096847;28;20176;-42
2023/02/15 00:21:48;;;;;;;17.63;15.63;;;5.90;1.00;;;;;;5097194;28;20445;-43
2023/02/15 00:24:16;;;;;;;20.90;17.67;;;5.90;1.00;;;;;;5095870;28;20470;-42
2023/02/15 00:26:43;;;;;;;19.30;17.00;;;5.90;1.00;;;;;;5096927;28;20704;-42
2023/02/15 00:29:10;;;;;;;19.10;16.50;;;5.90;1.00;;;;;;5097786;28;20414;-41
2023/02/15 00:31:36;;;;;;;18.00;16.10;;;5.80;1.00;;;;;;5097695;28;20426;-41
2023/02/15 00:34:03;;;;;;;19.90;17.53;;;5.80;1.00;;;;;;5096306;28;20414;-42
2023/02/15 00:36:28;;;;;;;19.37;16.63;;;5.80;1.00;;;;;;5096948;28;20398;-42
2023/02/15 00:38:54;;;;;;;21.00;17.27;;;5.80;1.00;;;;;;5097076;28;20808;-41
2023/02/15 00:41:20;;;;;;;22.50;17.90;;;5.80;1.00;;;;;;5098246;28;20191;-42
2023/02/15 00:43:45;;;;;;;18.77;16.70;;;5.70;1.00;;;;;;5098811;28;20180;-41
2023/02/15 00:46:11;;;;;;;19.20;17.07;;;5.70;1.00;;;;;;5097959;28;20204;-41
2023/02/15 00:48:36;;;;;;;19.87;15.80;;;5.70;1.00;;;;;;5098389;28;20179;-41
2023/02/15 00:51:02;;;;;;;20.57;18.00;;;5.70;1.00;;;;;;5098698;28;20239;-40
2023/02/15 00:53:28;;;;;;;20.87;17.60;;;5.60;1.00;;;;;;5098236;28;20267;-40
2023/02/15 00:55:54;;;;;;;21.43;17.47;;;5.60;1.00;;;;;;5098156;28;20176;-41
2023/02/15 00:58:20;;;;;;;20.10;17.70;;;5.60;1.00;;;;;;5098115;28;20925;-42
2023/02/15 01:00:47;;;;;;;18.43;16.27;;;5.60;1.00;;;;;;5097852;28;20208;-41
2023/02/15 01:03:15;;;;;;;20.33;18.13;;;5.60;1.00;;;;;;5098557;28;20177;-42
2023/02/15 01:05:41;;;;;;;19.93;17.70;;;5.50;1.00;;;;;;5097842;28;20430;-42
2023/02/15 01:08:06;;;;;;;20.50;18.30;;;5.50;1.00;;;;;;5097797;28;20734;-42
2023/02/15 01:10:33;;;;;;;20.77;18.57;;;5.50;1.00;;;;;;5097740;28;20276;-44
2023/02/15 01:12:59;;;;;;;20.23;18.17;;;5.50;1.00;;;;;;5096183;28;20303;-41
2023/02/15 01:15:25;;;;;;;19.67;17.03;;;5.50;1.00;;;;;;5095788;28;20509;-41
2023/02/15 01:17:53;;;;;;;20.83;18.53;;;5.50;1.00;;;;;;5095965;28;20200;-40
2023/02/15 01:20:24;;;;;;;21.13;18.40;;;5.50;1.00;;;;;;5095812;28;20245;-41
2023/02/15 01:22:50;;;;;;;20.60;17.83;;;5.50;1.00;;;;;;5096236;28;20427;-41
2023/02/15 01:25:17;;;;;;;22.30;17.90;;;5.50;1.00;;;;;;5095839;28;20738;-41
2023/02/15 01:27:43;;;;;;;21.00;18.10;;;5.50;1.00;;;;;;5096757;28;20418;-43
2023/02/15 01:30:09;;;;;;;19.97;17.47;;;5.50;1.00;;;;;;5097776;28;20469;-41
2023/02/15 01:32:35;;;;;;;20.27;17.87;;;5.40;1.00;;;;;;5097801;28;20184;-41
2023/02/15 01:35:00;;;;;;;23.10;18.60;;;5.40;1.00;;;;;;5097738;28;20419;-40
2023/02/15 01:37:26;;;;;;;21.37;17.83;;;5.40;1.00;;;;;;5097529;28;20173;-41
2023/02/15 01:39:53;;;;;;;23.03;18.00;;;5.30;1.00;;;;;;5096745;28;20570;-42
2023/02/15 01:42:24;;;;;;;21.50;17.97;;;5.30;1.00;;;;;;5096840;28;20200;-40
2023/02/15 01:44:51;;;;;;;23.40;19.10;;;5.20;1.00;;;;;;5096974;28;20426;-40
2023/02/15 01:47:43;;;;;;;19.10;16.13;;;5.20;1.00;;;;;;5097241;28;20488;-41
2023/02/15 01:50:21;;;;;;;19.60;17.50;;;5.20;1.00;;;;;;5095988;28;20462;-40
2023/02/15 01:52:54;;;;;;;19.23;17.23;;;5.20;1.00;;;;;;5095961;28;20414;-43
2023/02/15 01:55:22;;;;;;;23.17;18.70;;;5.20;1.00;;;;;;5097382;28;20533;-43
2023/02/15 01:57:47;;;;;;;19.53;16.70;;;5.10;1.00;;;;;;5097306;28;20555;-40
2023/02/15 02:00:14;;;;;;;20.00;17.20;;;5.10;1.00;;;;;;5097049;28;20411;-40
2023/02/15 02:02:41;;;;;;;21.77;17.70;;;5.10;1.00;;;;;;5097143;28;20243;-40
2023/02/15 02:05:08;;;;;;;21.03;17.13;;;5.10;1.00;;;;;;5096509;28;20426;-41
2023/02/15 02:07:39;;;;;;;19.63;17.53;;;5.00;1.00;;;;;;5095735;28;20419;-41
2023/02/15 02:10:06;;;;;;;19.43;16.70;;;5.00;1.00;;;;;;5096212;28;20468;-40
2023/02/15 02:12:32;;;;;;;20.77;16.97;;;5.00;1.00;;;;;;5093784;28;20434;-40
2023/02/15 02:14:58;;;;;;;18.97;16.33;;;4.90;1.00;;;;;;5077025;28;20661;-41
2023/02/15 02:17:24;;;;;;;18.70;16.70;;;4.90;1.00;;;;;;5095293;28;20267;-40
2023/02/15 02:20:30;;;;;;;23.03;18.97;;;4.90;1.00;;;;;;5096483;28;20842;-42
2023/02/15 02:23:19;;;;;;;18.60;16.60;;;4.80;1.00;;;;;;5065863;28;20443;-40
2023/02/15 02:26:07;;;;;;;19.60;17.50;;;4.80;1.00;;;;;;5096337;28;20525;-42
2023/02/15 02:28:54;;;;;;;20.00;17.07;;;4.80;1.00;;;;;;5095874;28;20414;-41
2023/02/15 02:32:04;;;;;;;22.37;17.73;;;4.80;1.00;;;;;;5096760;28;20466;-40
2023/02/15 02:34:33;;;;;;;21.73;18.30;;;4.80;1.00;;;;;;5081516;28;20495;-43
2023/02/15 02:37:11;;;;;;;19.47;17.40;;;4.80;1.00;;;;;;5095663;28;20437;-42
2023/02/15 02:39:40;;;;;;;22.03;18.13;;;4.70;1.00;;;;;;5096124;28;20426;-41
2023/02/15 02:42:43;;;;;;;21.70;17.33;;;4.70;1.00;;;;;;5095933;28;20450;-40
2023/02/15 02:45:09;;;;;;;21.53;18.23;;;4.70;1.00;;;;;;5096523;28;20410;-43
2023/02/15 02:47:51;;;;;;;20.13;17.60;;;4.70;1.00;;;;;;5095090;28;20421;-41
2023/02/15 02:50:22;;;;;;;18.13;16.10;;;4.60;1.00;;;;;;5095830;28;20530;-41
2023/02/15 02:52:50;;;;;;;20.07;17.00;;;4.60;1.00;;;;;;5096359;28;20464;-40
2023/02/15 02:55:31;;;;;;;20.97;17.87;;;4.60;1.00;;;;;;5096392;28;20801;-41
2023/02/15 02:58:00;;;;;;;19.10;17.10;;;4.60;1.00;;;;;;5096380;28;20406;-42
2023/02/15 03:00:30;;;;;;;21.93;17.50;;;4.50;1.00;;;;;;5095431;28;20437;-41
2023/02/15 03:03:04;;;;;;;18.90;16.90;;;4.50;1.00;;;;;;5095082;28;20441;-41
2023/02/15 03:05:32;;;;;;;19.27;17.23;;;4.50;1.00;;;;;;5095957;28;20410;-40
2023/02/15 03:08:00;;;;;;;24.83;19.13;;;4.50;1.00;;;;;;5098483;28;20434;-41
2023/02/15 03:10:27;;;;;;;25.10;21.07;;;4.40;1.00;;;;;;5096677;28;20470;-41
2023/02/15 03:12:53;;;;;;;25.00;21.20;;;4.40;1.00;;;;;;5095699;28;20824;-42
2023/02/15 03:15:25;;;;;;;23.70;19.90;;;4.40;1.00;;;;;;5096718;28;20411;-42
2023/02/15 03:17:56;;;;;;;24.80;19.90;;;4.40;1.00;;;;;;5096473;28;20756;-41
2023/02/15 03:20:32;;;;;;;21.97;18.77;;;4.30;1.00;;;;;;5094269;28;20641;-42
2023/02/15 03:23:01;;;;;;;24.60;19.87;;;4.30;1.00;;;;;;5094312;28;20479;-42
2023/02/15 03:25:32;;;;;;;23.50;19.40;;;4.30;1.00;;;;;;5097320;28;21105;-41
2023/02/15 03:28:07;;;;;;;20.57;18.00;;;4.30;1.00;;;;;;5099050;28;20430;-41
2023/02/15 03:30:34;;;;;;;21.20;18.00;;;4.30;1.00;;;;;;5098035;28;20473;-41
2023/02/15 03:33:01;;;;;;;19.87;16.57;;;4.20;1.00;;;;;;5098412;28;20421;-43
2023/02/15 03:35:50;;;;;;;20.10;17.90;;;4.20;1.00;;;;;;5100387;28;20452;-41
2023/02/15 03:38:20;;;;;;;21.53;17.40;;;4.20;1.00;;;;;;5099982;28;20509;-41
2023/02/15 03:43:55;;;;;;;21.50;16.80;;;4.20;1.00;;;;;;5098963;28;20870;-41
2023/02/15 03:46:43;;;;;;;22.50;18.63;;;4.10;1.00;;;;;;5098430;28;20425;-41
2023/02/15 03:49:12;;;;;;;22.40;16.90;;;4.10;8.10;;;;;;5099006;28;20695;-41
2023/02/15 03:51:40;;;;;;;20.20;17.43;;;4.10;12.00;;;;;;5098616;28;20430;-40
2023/02/15 03:54:10;;;;;;;21.47;17.97;;;4.10;15.50;;;;;;5098293;28;20414;-43
2023/02/15 03:56:41;;;;;;;19.00;17.00;;;4.10;19.30;;;;;;5098955;28;20438;-40
2023/02/15 04:02:21;;;;;;;20.30;17.67;;;4.10;19.30;;;;;;5056611;28;20783;-41
2023/02/15 04:04:48;;;;;;;18.83;16.83;;;4.00;25.30;;;;;;5056044;28;20415;-41
2023/02/15 04:07:13;;;;;;;21.47;17.60;;;4.00;29.30;;;;;;5079032;28;20429;-40
2023/02/15 04:12:23;;;;;;;19.50;16.53;;;3.90;36.00;;;;;;5099318;28;20176;-40
2023/02/15 04:17:33;;;;;;;23.30;18.27;;;3.90;55.00;;;;;;5096108;28;20417;-41
2023/02/15 04:25:28;;;;;;;19.40;17.30;;;3.90;92.70;;;;;;5099023;28;20785;-42
2023/02/15 04:27:54;;;;;;;20.47;17.17;;;3.80;97.20;;;;;;5099066;28;20430;-41
2023/02/15 04:30:22;;;;;;;22.17;18.97;;;3.80;98.90;;;;;;5098255;28;20665;-41
2023/02/15 04:32:48;;;;;;;18.90;16.90;;;3.80;99.90;;;;;;5097209;28;20427;-40
2023/02/15 04:35:14;;;;;;;23.33;19.20;;;3.70;99.90;;;;;;5096383;28;20437;-41
2023/02/15 04:37:40;;;;;;;22.40;17.93;;;3.70;99.90;;;;;;5096545;28;20169;-41
2023/02/15 04:40:07;;;;;;;21.73;19.33;;;3.70;99.90;;;;;;5096149;28;20410;-40
2023/02/15 04:42:33;;;;;;;19.50;17.53;;;3.70;99.90;;;;;;5094948;28;20434;-40
2023/02/15 04:44:59;;;;;;;23.00;18.07;;;3.60;99.90;;;;;;5096192;28;20439;-40
2023/02/15 04:47:24;;;;;;;21.20;19.10;;;3.60;99.90;;;;;;5096658;28;20176;-41
2023/02/15 04:49:50;;;;;;;19.90;17.80;;;3.60;99.90;;;;;;5095341;28;20208;-41
2023/02/15 04:52:17;;;;;;;20.63;18.50;;;3.60;99.90;;;;;;5096015;28;20173;-40
2023/02/15 04:54:43;;;;;;;23.20;18.63;;;3.60;99.90;;;;;;5094658;28;20459;-42
2023/02/15 04:57:09;;;;;;;20.47;17.23;;;3.60;99.90;;;;;;5095629;28;20816;-41
2023/02/15 04:59:34;;;;;;;21.00;17.37;;;3.60;99.90;;;;;;5097000;28;20485;-40
2023/02/15 05:02:00;;;;;;;21.87;17.77;;;3.60;99.90;;;;;;5096455;28;20631;-40
2023/02/15 05:04:26;;;;;;;20.57;16.63;;;3.60;99.90;;;;;;5098071;28;20210;-40
2023/02/15 05:06:51;;;;;;;19.73;16.80;;;3.60;99.90;;;;;;5098476;28;20183;-40
2023/02/15 05:09:17;;;;;;;19.80;17.17;;;3.50;99.90;;;;;;5097473;28;20197;-43
2023/02/15 05:11:43;;;;;;;19.93;17.87;;;3.50;99.90;;;;;;5096472;28;20596;-40
2023/02/15 05:14:09;;;;;;;22.73;18.70;;;3.50;99.90;;;;;;5095391;28;20704;-41
2023/02/15 05:16:34;;;;;;;20.83;18.30;;;3.40;99.90;;;;;;5094211;28;20450;-41
2023/02/15 05:19:00;;;;;;;19.60;17.07;;;3.40;99.90;;;;;;5094167;28;20488;-40
2023/02/15 05:21:26;;;;;;;21.27;18.87;;;3.40;99.90;;;;;;5091937;28;20744;-39
2023/02/15 05:23:52;;;;;;;19.23;17.20;;;3.40;99.90;;;;;;5092179;28;20678;-41
2023/02/15 05:29:05;;;;;;;17.77;15.90;;;3.40;99.90;;;;;;5089255;28;20653;-40
2023/02/15 05:31:31;;;;;;;21.90;17.70;;;3.30;99.90;;;;;;5090249;28;20410;-41
2023/02/15 05:33:57;;;;;;;19.77;16.30;;;3.30;99.90;;;;;;5090925;28;20445;-41
2023/02/15 05:36:23;;;;;;;19.47;16.50;;;3.30;99.90;;;;;;5090841;28;20483;-39
2023/02/15 05:38:49;;;;;;;19.27;16.67;;;3.30;99.90;;;;;;5093004;28;20184;-41
2023/02/15 05:41:15;;;;;;;19.00;15.50;;;3.30;99.90;;;;;;5093227;28;20196;-40
2023/02/15 05:43:40;;;;;;;20.43;17.50;;;3.30;99.90;;;;;;5093141;28;20469;-40
2023/02/15 05:46:06;;;;;;;19.37;15.70;;;3.30;99.90;;;;;;5091879;28;20168;-42
2023/02/15 05:48:33;;;;;;;19.70;15.87;;;3.20;99.90;;;;;;5090834;28;20393;-40
2023/02/15 05:51:07;;;;;;;20.70;16.47;;;3.20;99.90;;;;;;5092606;28;20578;-41
2023/02/15 05:53:34;;;;;;;19.90;15.90;;;3.20;99.90;;;;;;5093300;28;20454;-40
2023/02/15 05:56:02;;;;;;;18.00;14.70;;;3.20;99.90;;;;;;5092842;28;20419;-40
2023/02/15 05:58:29;;;;;;;22.03;16.77;;;3.20;99.90;;;;;;5090322;28;20693;-41
2023/02/15 06:00:54;;;;;;;18.83;16.80;;;3.20;99.90;;;;;;5087550;28;21027;-42
2023/02/15 06:03:22;;;;;;;19.43;16.67;;;3.10;99.90;;;;;;5090068;28;20469;-40
2023/02/15 06:05:49;;;;;;;19.77;15.87;;;3.10;99.90;;;;;;5091720;28;20302;-41
2023/02/15 06:08:15;;;;;;;21.93;17.90;;;3.10;99.90;;;;;;5088012;28;20638;-41
2023/02/15 06:10:41;;;;;;;20.80;17.83;;;3.10;99.90;;;;;;5089059;28;20767;-42
2023/02/15 06:13:07;;;;;;;21.93;16.87;;;3.10;99.90;;;;;;5087967;28;20168;-41
2023/02/15 06:15:32;;;;;;;23.53;18.63;;;3.10;99.90;;;;;;5090510;28;20195;-41
2023/02/15 06:17:58;;;;;;;22.27;17.10;;;3.00;99.90;;;;;;5090032;28;20851;-41
2023/02/15 06:20:24;;;;;;;21.10;17.03;;;3.00;99.90;;;;;;5089779;28;20390;-42
2023/02/15 06:22:50;;;;;;;20.37;17.73;;;3.00;99.90;;;;;;5091476;28;20513;-41
2023/02/15 06:25:15;;;;;;;21.33;17.33;;;3.00;99.90;;;;;;5092122;28;20489;-41
2023/02/15 06:27:42;;;;;;;20.40;18.23;;;3.00;99.90;;;;;;5093474;28;20435;-42
2023/02/15 06:30:08;;;;;;;19.43;16.77;;;3.00;99.90;;;;;;5091497;28;20497;-41
2023/02/15 06:32:34;;;;;;;20.77;18.43;;;3.00;99.90;;;;;;5091015;28;20422;-41
2023/02/15 06:35:00;;;;;;;24.13;19.23;;;3.00;99.90;;;;;;5089622;28;20437;-42
2023/02/15 06:37:26;;;;;;;20.83;18.73;;;3.00;99.90;;;;;;5088939;28;20420;-41
2023/02/15 06:39:52;;;;;;;21.87;18.90;;;3.00;99.90;;;;;;5084790;28;20498;-41
2023/02/15 06:42:20;;;;;;;19.70;17.37;;;3.00;99.90;;;;;;5086252;28;20195;-42
2023/02/15 06:44:45;;;;;;;23.30;20.27;;;3.00;99.90;;;;;;5087222;28;20192;-40
2023/02/15 06:47:11;;;;;;;20.13;17.63;;;3.00;99.90;;;;;;5085342;28;20544;-40
2023/02/15 06:49:37;;;;;;;23.90;17.80;;;3.00;99.90;;;;;;5085737;28;20465;-42
2023/02/15 06:52:03;;;;;;;21.93;17.93;;;3.00;99.90;;;;;;5084929;28;20185;-40
2023/02/15 06:54:29;;;;;;;20.07;17.87;;;3.00;99.90;;;;;;5090258;28;20168;-43
2023/02/15 06:56:55;;;;;;;20.67;17.90;;;3.10;99.90;;;;;;5089900;28;20418;-41
2023/02/15 06:59:21;;;;;;;22.50;17.90;;;3.40;99.90;;;;;;5096178;28;20176;-41
2023/02/15 07:01:47;;;;;;;19.20;16.10;;;3.60;99.90;;;;;;5094776;28;20453;-41
2023/02/15 07:04:13;;;;;;;17.57;15.67;;;3.80;99.90;;;;;;5095956;28;20709;-43
2023/02/15 07:06:39;;;;;;;18.80;16.37;;;4.00;99.90;;;;;;5097337;28;20673;-42
2023/02/15 07:09:04;;;;;;;20.60;15.97;;;4.30;57.90;;;;;;5097581;28;20199;-43
2023/02/15 07:14:16;;;;;;;17.60;14.40;;;4.70;38.80;;;;;;5114689;28;20253;-41
2023/02/15 07:16:41;;;;;;;17.20;14.97;;;4.90;40.90;;;;;;5115100;28;20618;-42
2023/02/15 07:19:07;;;;;;;17.73;13.60;;;5.10;52.60;;;;;;5116149;28;20176;-40
2023/02/15 07:21:34;;;;;;;15.43;13.10;;;5.40;56.60;;;;;;5115156;28;20198;-42
2023/02/15 07:24:00;;;;;;;16.50;12.40;;;5.70;36.20;;;;;;5116254;27;20478;-41
2023/02/15 07:26:26;;;;;;;14.77;11.90;;;5.90;17.20;;;;;;5116034;28;20408;-40
2023/02/15 07:28:51;;;;;;;16.20;12.00;;;6.20;2.90;;;;;;5119820;28;20474;-40
2023/02/15 07:31:17;;;;;;;13.40;11.73;;;6.50;1.00;;;;;;5116207;28;20722;-41
2023/02/15 07:33:43;;;;;;;13.63;12.10;;;6.80;1.00;;;;;;5115556;28;20550;-43
2023/02/15 07:36:11;;;;;;;11.10;9.87;;;7.10;1.00;;;;;;5114393;28;20450;-43
2023/02/15 07:38:39;;;;;;;12.50;10.57;;;7.40;1.00;;;;;;5117760;27;20283;-42
2023/02/15 07:41:06;;;;;;;12.20;9.70;;;7.70;1.00;;;;;;5114597;27;20711;-44
2023/02/15 07:43:37;;;;;;;11.07;9.87;;;7.90;1.00;;;;;;5115778;27;20434;-42
2023/02/15 07:46:05;;;;;;;13.17;9.73;;;8.20;1.00;;;;;;5115307;28;20409;-42
2023/02/15 07:48:31;;;;;;;10.73;9.23;;;8.50;1.00;;;;;;5116657;27;20432;-43
2023/02/15 07:51:01;;;;;;;11.90;9.37;;;8.80;1.00;;;;;;5114435;28;20469;-42
2023/02/15 07:53:27;;;;;;;11.80;9.30;;;9.00;1.00;;;;;;5117123;27;20671;-42
2023/02/15 07:55:53;;;;;;;10.73;9.60;;;9.30;1.00;;;;;;5115826;27;20423;-41
2023/02/15 07:58:19;;;;;;;9.47;8.47;;;9.60;1.00;;;;;;5114323;28;20482;-42
2023/02/15 08:00:57;;;;;;;12.50;8.90;;;9.90;1.00;;;;;;5115734;28;20600;-42
2023/02/15 08:03:26;;;;;;;10.43;9.33;;;10.20;1.00;;;;;;5116290;27;20485;-42
2023/02/15 08:05:56;;;;;;;9.80;8.80;;;10.60;1.00;;;;;;5114166;28;20425;-42
2023/02/15 08:08:30;;;;;;;10.13;8.27;;;10.80;1.00;;;;;;5117205;28;20671;-41
2023/02/15 08:13:56;;;;;;;10.80;9.53;;;11.50;1.00;;;;;;5115275;28;20527;-42
2023/02/15 08:16:33;;;;;;;12.60;10.90;;;11.90;1.00;;;;;;5116553;28;20409;-42
2023/02/15 08:19:00;;;;;;;14.00;12.47;;;12.50;1.00;;;;;;5116337;28;20459;-41
2023/02/15 08:21:28;;;;;;;15.10;13.13;;;13.10;1.00;;;;;;5118354;28;20432;-42
2023/02/15 08:23:54;;;;;;;17.63;14.50;;;13.70;1.00;;;;;;5116822;28;20436;-40
2023/02/15 08:26:21;;;;;;;16.17;14.47;;;14.30;1.00;;;;;;5116059;28;20425;-40
2023/02/15 08:28:46;;;;;;;18.40;16.10;;;15.00;1.00;;;;;;5114320;28;20458;-40
2023/02/15 08:31:13;;;;;;;18.97;15.23;;;15.70;1.00;;;;;;5112185;28;20503;-46
2023/02/15 08:33:41;;;;;;;20.57;16.03;;;16.30;1.00;;;;;;5114599;28;20183;-42
2023/02/15 08:36:18;;;;;;;17.53;15.67;;;16.80;1.00;;;;;;5115177;28;20398;-41
2023/02/15 08:38:44;;;;;;;18.93;16.83;;;17.40;1.00;;;;;;5116759;28;20505;-43
2023/02/15 08:41:10;;;;;;;19.50;16.33;;;17.80;1.00;;;;;;5115179;28;20777;-39
2023/02/15 08:43:37;;;;;;;20.17;17.40;;;18.30;1.00;;;;;;5115105;28;20472;-41
2023/02/15 08:46:03;;;;;;;17.93;16.03;;;18.70;1.00;;;;;;5117003;28;20426;-42
2023/02/15 08:48:28;;;;;;;18.70;16.80;;;19.10;1.00;;;;;;5115954;28;20490;-41
2023/02/15 08:50:54;;;;;;;16.23;14.47;;;19.60;1.00;;;;;;5116258;28;20214;-44
2023/02/15 08:53:21;;;;;;;15.23;13.93;;;20.00;1.00;;;;;;5115657;28;20202;-42
2023/02/15 08:55:54;;;;;;;14.63;13.10;;;20.50;1.00;;;;;;5116636;28;20171;-43
2023/02/15 08:58:20;;;;;;;14.23;12.83;;;20.90;1.00;;;;;;5116610;27;20436;-41
2023/02/15 09:00:45;;;;;;;15.13;13.67;;;21.40;1.00;;;;;;5116960;28;20501;-42
2023/02/15 09:03:11;;;;;;;15.00;13.40;;;21.90;1.00;;;;;;5116519;28;20575;-40
2023/02/15 09:05:37;;;;;;;14.87;13.40;;;22.30;1.00;;;;;;5115477;28;20262;-41
2023/02/15 09:08:02;;;;;;;14.53;13.10;;;22.70;1.00;;;;;;5115350;28;20187;-43
2023/02/15 09:10:28;;;;;;;15.20;13.37;;;23.20;1.00;;;;;;5114054;28;20211;-43
2023/02/15 09:12:53;;;;;;;14.83;13.43;;;23.70;1.00;;;;;;5114091;28;20254;-41
2023/02/15 09:15:19;;;;;;;15.70;14.20;;;24.00;1.00;;;;;;5114874;28;20247;-41
2023/02/15 09:17:45;;;;;;;14.27;12.87;;;24.60;1.00;;;;;;5114358;28;20733;-41
2023/02/15 09:20:11;;;;;;;14.77;13.37;;;25.10;1.00;;;;;;5113598;28;20179;-42
2023/02/15 09:22:36;;;;;;;13.60;12.23;;;25.60;1.00;;;;;;5115012;28;20176;-41
2023/02/15 09:25:02;;;;;;;13.87;12.47;;;26.00;1.00;;;;;;5112337;28;20921;-41
2023/02/15 09:27:29;;;;;;;12.40;11.20;;;26.40;1.00;;;;;;5114898;28;20429;-42
2023/02/15 09:29:54;;;;;;;12.83;11.57;;;26.90;1.00;;;;;;5115546;28;20211;-42
2023/02/15 09:32:20;;;;;;;14.13;12.63;;;27.40;1.00;;;;;;5116538;28;20418;-42
2023/02/15 09:34:48;;;;;;;13.10;11.90;;;27.80;1.00;;;;;;5113608;28;20174;-42
2023/02/15 09:37:13;;;;;;;12.00;10.90;;;28.00;1.00;;;;;;5112376;28;20422;-41
2023/02/15 09:39:41;;;;;;;13.40;12.10;;;28.50;1.00;;;;;;5110844;28;20526;-41
2023/02/15 09:42:22;;;;;;;12.40;11.30;;;29.10;1.00;;;;;;5110915;28;20172;-40
2023/02/15 09:45:06;;;;;;;13.80;12.40;;;29.40;1.00;;;;;;5103054;28;20688;-44
2023/02/15 09:47:35;;;;;;;10.37;9.33;;;29.70;1.00;;;;;;5091841;28;20421;-45
2023/02/15 09:50:21;;;;;;;11.50;10.40;;;30.40;1.00;;;;;;5090149;28;20541;-46
2023/02/15 09:52:52;;;;;;;13.00;9.80;;;30.70;1.00;;;;;;5090497;28;20523;-45
2023/02/15 09:55:36;;;;;;;10.73;9.80;;;31.30;1.00;;;;;;5093249;28;20614;-45
2023/02/15 09:58:23;;;;;;;10.43;9.43;;;31.80;1.00;;;;;;5093985;28;20520;-54
2023/02/15 10:01:08;;;;;;;10.27;9.17;;;32.30;1.00;;;;;;5092339;28;20389;-46
2023/02/15 10:04:11;;;;;;;9.50;8.50;;;32.70;1.00;;;;;;5089883;28;20480;-47
2023/02/15 10:07:13;;;;;;;9.23;8.33;;;33.10;1.00;;;;;;5091056;28;20868;-44
2023/02/15 10:10:00;;;;;;;10.30;8.30;;;33.60;1.00;;;;;;5092314;28;20444;-45
2023/02/15 10:13:03;;;;;;;8.83;7.83;;;33.80;1.00;;;;;;5089989;28;20575;-44
2023/02/15 10:15:41;;;;;;;10.73;8.50;;;34.00;1.00;;;;;;5089962;28;20729;-44
2023/02/15 10:18:28;;;;;;;14.50;10.63;;;34.20;1.00;;;;;;5091835;28;20486;-45
2023/02/15 10:21:13;;;;;;;16.87;10.03;;;34.10;1.00;;;;;;5089386;28;20831;-45
2023/02/15 10:23:47;;;;;;;11.93;9.17;;;34.10;1.00;;;;;;5091375;28;20460;-46
2023/02/15 10:26:22;;;;;;;15.00;9.13;;;33.80;1.00;;;;;;5092884;28;20397;-45
2023/02/15 10:28:58;;;;;;;12.30;9.40;;;33.60;1.00;;;;;;5093770;28;20412;-45
2023/02/15 10:31:50;;;;;;;9.83;8.90;;;33.70;1.00;;;;;;5091850;28;20887;-45
2023/02/15 10:34:22;;;;;;;10.47;9.27;;;33.50;1.00;;;;;;5095030;28;20389;-48
2023/02/15 10:37:01;;;;;;;11.13;9.73;;;33.60;1.00;;;;;;5096183;28;20671;-43
2023/02/15 10:39:39;;;;;;;15.43;9.77;;;33.70;1.00;;;;;;5093516;28;20491;-46
2023/02/15 10:42:11;;;;;;;12.90;10.93;;;33.50;1.00;;;;;;5092350;28;20882;-47
2023/02/15 10:45:02;;;;;;;12.20;11.00;;;33.80;1.00;;;;;;5093214;28;20415;-46
2023/02/15 10:47:45;;;;;;;8.87;8.07;;;34.10;1.00;;;;;;5091375;28;20418;-46
2023/02/15 10:50:39;;;;;;;9.67;8.77;;;34.50;1.00;;;;;;5091429;28;20465;-44
2023/02/15 10:53:13;;;;;;;10.50;8.97;;;34.90;1.00;;;;;;5091442;28;20397;-45
2023/02/15 10:56:12;;;;;;;10.60;9.00;;;35.40;1.00;;;;;;5092114;28;20414;-47
2023/02/15 10:59:18;;;;;;;8.87;8.07;;;35.70;1.00;;;;;;5090273;28;20809;-46
2023/02/15 11:01:55;;;;;;;8.60;7.80;;;36.30;1.00;;;;;;5050437;28;20440;-45
2023/02/15 11:04:33;;;;;;;9.30;8.50;;;36.80;1.00;;;;;;5034365;28;20414;-45
2023/02/15 11:07:06;;;;;;;9.47;8.57;;;37.20;1.00;;;;;;5076125;28;20717;-46
2023/02/15 11:09:54;;;;;;;8.50;7.80;;;37.70;1.00;;;;;;5089514;28;20689;-46
2023/02/15 11:12:24;;;;;;;9.97;9.13;;;38.30;1.00;;;;;;5088218;28;20500;-46
2023/02/15 11:14:57;;;;;;;11.10;8.30;;;39.00;1.00;;;;;;5088237;28;20403;-45
2023/02/15 11:17:41;;;;;;;10.47;7.97;;;39.10;1.00;;;;;;5088572;28;20516;-43
2023/02/15 11:20:27;;;;;;;12.77;8.70;;;39.60;1.00;;;;;;5090076;28;20419;-45
2023/02/15 11:22:53;;;;;;;9.40;8.60;;;39.90;1.00;;;;;;5091853;28;20517;-46
2023/02/15 11:25:31;;;;;;;9.23;8.33;;;40.00;1.00;;;;;;5092344;28;20962;-46
2023/02/15 11:27:56;;;;;;;10.07;9.00;;;40.30;1.00;;;;;;5091157;28;20199;-45
2023/02/15 11:30:29;;;;;;;8.17;6.97;;;40.60;1.00;;;;;;5091278;28;20773;-45
2023/02/15 11:32:57;;;;;;;8.43;7.73;;;40.90;1.00;;;;;;5090492;28;20296;-43
2023/02/15 11:36:04;;;;;;;7.60;7.00;;;40.90;1.00;;;;;;5091840;28;20498;-44
2023/02/15 11:38:32;;;;;;;8.63;7.67;;;41.30;1.00;;;;;;5089769;28;20434;-50
2023/02/15 11:41:09;;;;;;;8.33;7.50;;;41.60;1.00;;;;;;5090072;28;20423;-44
2023/02/15 11:43:54;;;;;;;8.17;7.10;;;41.50;1.00;;;;;;5088542;28;20508;-44
2023/02/15 11:46:21;;;;;;;7.80;7.10;;;41.60;1.00;;;;;;5092748;28;20498;-47
2023/02/15 11:48:47;;;;;;;8.00;7.10;;;42.00;1.00;;;;;;5092530;28;20546;-46
2023/02/15 11:51:16;;;;;;;13.33;7.10;;;42.40;1.00;;;;;;5090642;28;20410;-45
2023/02/15 11:53:43;;;;;;;7.67;7.00;;;42.40;1.00;;;;;;5089793;28;20185;-46
2023/02/15 11:56:20;;;;;;;7.03;6.33;;;42.40;1.00;;;;;;5095253;28;20851;-46
2023/02/15 11:58:51;;;;;;;11.30;8.93;;;42.50;1.00;;;;;;5091950;28;20414;-44
2023/02/15 12:01:28;;;;;;;10.07;9.17;;;42.40;1.00;;;;;;5093434;28;20754;-46
2023/02/15 12:04:14;;;;;;;10.93;9.87;;;41.70;1.00;;;;;;5093465;28;20406;-45
2023/02/15 12:06:59;;;;;;;10.60;9.60;;;41.10;1.00;;;;;;5096474;28;20640;-45
2023/02/15 12:09:48;;;;;;;10.17;9.23;;;41.10;1.00;;;;;;5091726;28;20437;-46
2023/02/15 12:12:24;;;;;;;10.67;9.67;;;41.00;1.00;;;;;;5093437;28;20418;-47
2023/02/15 12:14:53;;;;;;;16.63;9.57;;;41.10;1.00;;;;;;5091967;28;20422;-44
2023/02/15 12:17:21;;;;;;;11.50;10.50;;;41.00;1.00;;;;;;5092338;28;20419;-46
2023/02/15 12:19:50;;;;;;;13.47;9.03;;;41.00;1.00;;;;;;5094673;28;20462;-45
2023/02/15 12:22:28;;;;;;;8.53;7.73;;;41.20;1.00;;;;;;5096252;28;20415;-47
2023/02/15 12:24:56;;;;;;;7.30;6.60;;;41.10;1.00;;;;;;5094537;28;20535;-47
2023/02/15 12:27:29;;;;;;;9.77;8.87;;;41.30;1.00;;;;;;5092519;28;20560;-47
2023/02/15 12:30:07;;;;;;;8.10;7.30;;;41.40;1.00;;;;;;5092544;28;20438;-45
2023/02/15 12:32:46;;;;;;;8.43;7.50;;;41.20;1.00;;;;;;5093427;28;20430;-46
2023/02/15 12:35:27;;;;;;;7.60;6.87;;;41.30;1.00;;;;;;5091544;28;20509;-45
2023/02/15 12:37:57;;;;;;;9.10;7.37;;;41.40;1.00;;;;;;5091190;28;20429;-45
2023/02/15 12:40:30;;;;;;;7.43;6.83;;;41.30;1.00;;;;;;5088427;28;20450;-46
2023/02/15 12:42:56;;;;;;;7.37;6.63;;;41.60;1.00;;;;;;5089405;28;20438;-46
2023/02/15 12:45:30;;;;;;;7.03;6.17;;;41.70;1.00;;;;;;5091753;28;20441;-46
2023/02/15 12:48:18;;;;;;;8.13;7.43;;;41.90;1.00;;;;;;5090874;28;20422;-46
2023/02/15 12:50:48;;;;;;;7.10;6.40;;;42.20;1.00;;;;;;5090902;28;20688;-46
2023/02/15 12:53:44;;;;;;;7.80;7.10;;;42.40;1.00;;;;;;5088707;28;20486;-46
2023/02/15 12:56:10;;;;;;;8.20;7.40;;;42.40;1.00;;;;;;5082641;28;20445;-46
2023/02/15 12:58:38;;;;;;;7.23;6.53;;;42.50;1.00;;;;;;5092903;28;20425;-46
2023/02/15 13:01:19;;;;;;;11.90;7.90;;;42.50;1.00;;;;;;5094382;28;20856;-46
2023/02/15 13:04:04;;;;;;;9.90;8.87;;;42.80;1.00;;;;;;5092303;28;20665;-47
2023/02/15 13:06:32;;;;;;;7.80;7.10;;;42.80;1.00;;;;;;5092567;28;20442;-45
2023/02/15 13:09:14;;;;;;;10.37;9.37;;;43.00;1.00;;;;;;5089746;28;20677;-46
2023/02/15 13:11:41;;;;;;;11.10;10.20;;;43.00;1.00;;;;;;5089684;28;20422;-45
2023/02/15 13:14:21;;;;;;;12.23;11.33;;;42.80;1.00;;;;;;5089137;28;20815;-43
2023/02/15 13:16:48;;;;;;;11.87;10.77;;;42.80;1.00;;;;;;5090804;28;20483;-46
2023/02/15 13:19:31;;;;;;;12.97;11.53;;;42.90;1.00;;;;;;5092102;28;20419;-44
2023/02/15 13:21:57;;;;;;;10.80;9.90;;;42.70;1.00;;;;;;5090781;28;20457;-48
2023/02/15 13:24:37;;;;;;;12.53;11.50;;;42.80;1.00;;;;;;5089084;28;20655;-45
2023/02/15 13:27:03;;;;;;;10.70;9.80;;;42.80;1.00;;;;;;5073021;28;20701;-48
2023/02/15 13:29:31;;;;;;;12.17;11.07;;;42.80;1.00;;;;;;5087459;28;20572;-46
2023/02/15 13:32:00;;;;;;;13.13;11.90;;;42.80;1.00;;;;;;5089402;28;20433;-46